Time;durP1;ratioP1;P1;durP2;ratioP2;P2;SDS_P1;SDS_P2;PMS_P1;PMS_P2;Temp;Humidity;BMP_temperature;BMP_pressure;BME280_temperature;BME280_humidity;BME280_pressure;Samples;Min_cycle;Max_cycle;Signal;HPM_P1;HPM_P2
2022/01/29 12:26:05;;;;;;;11.93;10.20;;;;;;;3.04;95.18;95358.84;5100435;27;20228;-71
2022/01/29 12:28:30;;;;;;;14.57;11.65;;;;;;;2.82;96.49;95357.09;5081119;28;20268;-72
2022/01/29 12:30:57;;;;;;;12.55;11.25;;;;;;;2.96;96.09;95366.28;5078278;28;20016;-72
2022/01/29 12:33:24;;;;;;;14.02;12.43;;;;;;;2.80;96.89;95368.34;5081937;28;20438;-71
2022/01/29 12:35:54;;;;;;;13.60;11.60;;;;;;;2.81;96.48;95367.41;5080516;28;20210;-71
2022/01/29 12:38:31;;;;;;;17.70;12.43;;;;;;;2.81;95.56;95358.00;5100564;28;20020;-71
2022/01/29 12:41:02;;;;;;;11.65;10.45;;;;;;;2.87;95.81;95354.19;5079417;28;20040;-71
2022/01/29 12:43:30;;;;;;;11.57;10.45;;;;;;;2.92;95.35;95359.78;5082045;28;20043;-71
2022/01/29 12:46:09;;;;;;;13.57;10.98;;;;;;;2.74;95.71;95353.44;5079495;28;20038;-71
2022/01/29 12:48:35;;;;;;;12.55;10.18;;;;;;;2.84;96.35;95345.00;5097577;28;20031;-71
2022/01/29 12:51:06;;;;;;;14.93;10.70;;;;;;;2.81;95.35;95347.78;5081497;28;20051;-71
2022/01/29 12:53:31;;;;;;;12.40;11.20;;;;;;;2.61;96.68;95344.13;5078283;28;20046;-71
2022/01/29 12:56:06;;;;;;;11.32;10.15;;;;;;;2.52;96.88;95349.09;5102779;28;20053;-71
2022/01/29 12:58:35;;;;;;;14.15;11.93;;;;;;;2.71;96.78;95351.13;5085102;28;20100;-72
2022/01/29 13:01:12;;;;;;;16.85;14.77;;;;;;;2.85;96.31;95338.97;5104049;28;20039;-72
2022/01/29 13:03:38;;;;;;;18.92;14.88;;;;;;;3.00;95.45;95347.22;5103241;28;20028;-71
2022/01/29 13:06:13;;;;;;;18.65;14.82;;;;;;;2.77;95.91;95336.16;5102175;28;20040;-72
2022/01/29 13:08:39;;;;;;;19.13;15.52;;;;;;;2.65;96.59;95337.88;5103185;28;20020;-72
2022/01/29 13:11:21;;;;;;;16.50;14.10;;;;;;;2.64;96.06;95341.34;5101661;28;20119;-72
2022/01/29 13:13:47;;;;;;;22.73;17.35;;;;;;;2.73;96.60;95344.19;5103584;28;20099;-73
2022/01/29 13:16:12;;;;;;;23.88;17.63;;;;;;;2.75;96.54;95340.56;5085457;28;20639;-73
2022/01/29 13:18:38;;;;;;;24.45;16.45;;;;;;;2.84;96.48;95341.63;5090664;28;20134;-72
2022/01/29 13:21:03;;;;;;;23.65;16.48;;;;;;;2.74;96.49;95345.78;5093994;28;20090;-72
2022/01/29 13:23:36;;;;;;;23.85;17.30;;;;;;;2.64;97.45;95346.47;5094668;28;20110;-72
2022/01/29 13:26:18;;;;;;;20.63;15.27;;;;;;;2.85;96.59;95345.81;5073147;28;20135;-72
2022/01/29 13:28:56;;;;;;;18.58;15.40;;;;;;;2.87;97.84;95338.81;5079494;28;20031;-73
2022/01/29 13:31:21;;;;;;;13.57;11.30;;;;;;;2.77;96.44;95341.25;5079995;28;20021;-72
2022/01/29 13:33:48;;;;;;;16.20;11.50;;;;;;;2.71;96.63;95343.44;5065044;28;20038;-72
2022/01/29 13:36:14;;;;;;;13.88;12.32;;;;;;;2.63;97.23;95351.72;5073883;28;20025;-72
2022/01/29 13:38:40;;;;;;;13.27;11.13;;;;;;;2.59;97.47;95342.63;5088257;28;20016;-72
2022/01/29 13:41:06;;;;;;;12.68;11.23;;;;;;;2.52;96.85;95347.38;5071117;28;20229;-73
2022/01/29 13:43:34;;;;;;;12.32;11.13;;;;;;;2.44;96.58;95352.22;5090452;28;20066;-73
2022/01/29 13:46:06;;;;;;;12.80;10.73;;;;;;;2.50;95.86;95346.69;5088675;28;20070;-72
2022/01/29 13:48:42;;;;;;;14.38;10.63;;;;;;;2.38;97.35;95354.41;5090224;28;20063;-72
2022/01/29 13:51:08;;;;;;;12.02;10.48;;;;;;;2.19;96.94;95354.91;5089392;28;20020;-72
2022/01/29 13:53:46;;;;;;;11.48;10.27;;;;;;;2.27;96.64;95354.38;5087796;28;20074;-73
2022/01/29 13:56:19;;;;;;;13.63;10.35;;;;;;;2.37;97.06;95357.91;5089288;28;20032;-72
2022/01/29 13:58:46;;;;;;;12.27;10.73;;;;;;;2.42;96.55;95353.25;5087892;28;20024;-73
2022/01/29 14:01:11;;;;;;;13.40;11.35;;;;;;;2.40;97.46;95352.56;5089205;28;20024;-73
2022/01/29 14:03:51;;;;;;;14.82;12.50;;;;;;;2.44;97.17;95366.75;5088659;28;20469;-72
2022/01/29 14:06:32;;;;;;;20.15;13.57;;;;;;;2.54;96.66;95363.41;5088337;28;20024;-72
2022/01/29 14:09:34;;;;;;;26.65;17.13;;;;;;;2.54;96.79;95362.59;5106177;28;20066;-72
2022/01/29 14:11:57;;;;;;;18.05;14.43;;;;;;;2.59;95.98;95363.91;5088852;28;20038;-72
2022/01/29 14:14:25;;;;;;;19.58;14.48;;;;;;;2.47;95.86;95364.78;5089690;28;20404;-72
2022/01/29 14:16:50;;;;;;;17.17;13.77;;;;;;;2.32;96.12;95359.97;5073441;28;20104;-72
2022/01/29 14:19:18;;;;;;;17.95;14.50;;;;;;;2.44;95.81;95366.75;5107063;28;20111;-72
2022/01/29 14:21:43;;;;;;;16.80;12.85;;;;;;;2.26;95.68;95360.41;5109032;28;20028;-72
2022/01/29 14:24:09;;;;;;;18.90;15.35;;;;;;;2.27;96.05;95365.41;5105054;28;20389;-72
2022/01/29 14:26:35;;;;;;;20.38;15.05;;;;;;;2.23;96.50;95361.44;5071320;28;20025;-72
2022/01/29 14:29:01;;;;;;;16.65;14.10;;;;;;;2.23;96.07;95361.44;5067014;28;20116;-72
2022/01/29 14:31:26;;;;;;;18.73;14.32;;;;;;;2.26;95.85;95365.50;5067966;28;20025;-72
2022/01/29 14:33:52;;;;;;;18.88;13.63;;;;;;;2.20;96.84;95365.94;5068106;28;20097;-72
2022/01/29 14:36:17;;;;;;;21.52;14.13;;;;;;;2.20;97.02;95366.78;5068328;28;20016;-72
2022/01/29 14:38:42;;;;;;;18.42;14.77;;;;;;;2.21;97.29;95370.16;5069130;28;20024;-72
2022/01/29 14:41:08;;;;;;;18.35;13.43;;;;;;;1.99;98.52;95384.44;5068029;28;20028;-72
2022/01/29 14:43:34;;;;;;;19.65;13.13;;;;;;;1.91;100.00;95381.63;5068787;28;20032;-72
2022/01/29 14:46:00;;;;;;;19.65;13.48;;;;;;;1.88;100.00;95369.06;5049228;28;20879;-72
2022/01/29 14:48:26;;;;;;;17.90;13.27;;;;;;;1.86;100.00;95370.09;5066962;28;20088;-72
2022/01/29 14:50:51;;;;;;;16.10;13.38;;;;;;;1.82;100.00;95373.78;5066727;28;20112;-71
2022/01/29 14:53:19;;;;;;;18.33;13.57;;;;;;;1.79;100.00;95381.66;5067397;28;20017;-72
2022/01/29 14:55:45;;;;;;;17.17;12.93;;;;;;;1.70;100.00;95382.31;5074061;28;20024;-71
2022/01/29 14:58:10;;;;;;;16.60;12.38;;;;;;;1.62;100.00;95376.91;5073932;28;20493;-71
2022/01/29 15:00:36;;;;;;;13.15;11.52;;;;;;;1.59;100.00;95377.94;5078072;28;20020;-72
2022/01/29 15:03:03;;;;;;;14.50;12.52;;;;;;;1.64;100.00;95380.97;5076824;28;20030;-72
2022/01/29 15:05:29;;;;;;;16.20;12.50;;;;;;;1.59;100.00;95390.69;5068983;28;20020;-72
2022/01/29 15:07:56;;;;;;;39.03;25.02;;;;;;;1.69;100.00;95383.22;5076921;28;20509;-72
2022/01/29 15:10:21;;;;;;;20.95;13.93;;;;;;;1.65;100.00;95384.34;5082746;28;20115;-72
2022/01/29 15:12:47;;;;;;;21.55;16.17;;;;;;;1.71;100.00;95383.91;5087059;28;20131;-72
2022/01/29 15:15:12;;;;;;;18.98;13.82;;;;;;;1.46;100.00;95389.91;5088361;28;20024;-72
2022/01/29 15:17:38;;;;;;;20.25;14.07;;;;;;;1.57;100.00;95392.53;5087295;28;20454;-72
2022/01/29 15:20:04;;;;;;;25.65;16.52;;;;;;;1.56;100.00;95388.34;5077821;28;20070;-72
2022/01/29 15:22:30;;;;;;;21.13;17.08;;;;;;;1.50;100.00;95388.78;5085537;28;20123;-71
2022/01/29 15:24:56;;;;;;;21.10;17.60;;;;;;;1.46;100.00;95390.72;5078139;28;20040;-72
2022/01/29 15:27:21;;;;;;;22.02;16.83;;;;;;;1.45;100.00;95390.81;5068181;28;20028;-72
2022/01/29 15:29:47;;;;;;;20.52;15.65;;;;;;;1.42;100.00;95391.84;5066208;28;20028;-72
2022/01/29 15:32:13;;;;;;;26.10;19.50;;;;;;;1.27;100.00;95392.91;5066752;28;20056;-72
2022/01/29 15:34:39;;;;;;;25.73;17.40;;;;;;;1.31;100.00;95393.50;5066992;28;20060;-71
2022/01/29 15:37:05;;;;;;;24.77;17.10;;;;;;;1.37;100.00;95393.91;5083365;28;20039;-72
2022/01/29 15:39:30;;;;;;;27.27;17.70;;;;;;;1.30;100.00;95400.34;5068921;28;20063;-71
2022/01/29 15:41:57;;;;;;;30.55;18.50;;;;;;;1.24;100.00;95403.31;5070547;28;20016;-72
2022/01/29 15:44:23;;;;;;;27.45;17.58;;;;;;;1.27;100.00;95397.19;5071988;28;20028;-71
2022/01/29 15:46:48;;;;;;;22.88;16.83;;;;;;;1.30;100.00;95400.34;5078248;28;20028;-71
2022/01/29 15:49:14;;;;;;;18.30;15.02;;;;;;;1.21;100.00;95397.59;5080796;28;20067;-71
2022/01/29 15:51:40;;;;;;;22.02;16.27;;;;;;;1.32;100.00;95406.13;5065839;28;20411;-71
2022/01/29 15:54:06;;;;;;;21.30;14.93;;;;;;;1.22;100.00;95405.13;5082111;28;20078;-71
2022/01/29 15:56:31;;;;;;;20.70;15.52;;;;;;;1.21;100.00;95393.31;5083429;28;20027;-72
2022/01/29 15:58:57;;;;;;;20.83;15.55;;;;;;;1.14;100.00;95396.38;5082178;28;20016;-72
2022/01/29 16:01:22;;;;;;;23.75;16.95;;;;;;;1.14;100.00;95401.47;5062090;28;20059;-71
2022/01/29 16:03:50;;;;;;;19.48;13.95;;;;;;;1.30;100.00;95404.63;5042845;28;20115;-72
2022/01/29 16:06:16;;;;;;;22.25;16.40;;;;;;;1.19;100.00;95405.34;5051741;28;20054;-72
2022/01/29 16:08:42;;;;;;;23.73;15.00;;;;;;;1.19;100.00;95407.09;5074337;28;20032;-72
2022/01/29 16:11:07;;;;;;;17.50;14.63;;;;;;;1.12;100.00;95411.78;5071048;28;20038;-72
2022/01/29 16:13:33;;;;;;;23.23;16.50;;;;;;;1.12;100.00;95400.78;5083582;28;20065;-72
2022/01/29 16:15:58;;;;;;;23.20;15.25;;;;;;;1.13;100.00;95423.59;5079336;28;20096;-72
2022/01/29 16:18:29;;;;;;;24.95;16.05;;;;;;;1.06;100.00;95415.53;5075573;28;20038;-72
2022/01/29 16:20:54;;;;;;;;;;;;;;;1.12;100.00;95409.25;5075144;28;20036;-71
2022/01/29 16:23:19;;;;;;;34.33;21.33;;;;;;;1.10;100.00;95415.34;5080766;28;20455;-72
2022/01/29 16:25:45;;;;;;;41.08;25.30;;;;;;;1.07;100.00;95421.47;5080436;28;20062;-72
2022/01/29 16:28:12;;;;;;;29.33;19.30;;;;;;;1.02;100.00;95420.97;5082554;28;20031;-72
2022/01/29 16:30:38;;;;;;;28.80;18.98;;;;;;;1.12;100.00;95427.09;5082175;28;20115;-72
2022/01/29 16:33:04;;;;;;;29.55;15.75;;;;;;;1.02;100.00;95426.06;5083277;28;20518;-72
2022/01/29 16:35:29;;;;;;;17.17;12.90;;;;;;;0.96;100.00;95423.91;5074880;28;20119;-72
2022/01/29 16:37:55;;;;;;;15.38;11.00;;;;;;;0.93;100.00;95431.78;5098074;28;20048;-71
2022/01/29 16:40:21;;;;;;;14.00;11.50;;;;;;;0.96;100.00;95423.91;5064982;28;20032;-71
2022/01/29 16:42:46;;;;;;;13.70;11.45;;;;;;;1.02;100.00;95426.06;5077347;28;20040;-71
2022/01/29 16:45:12;;;;;;;15.20;11.38;;;;;;;0.89;100.00;95432.88;5063072;28;20497;-71
2022/01/29 16:47:40;;;;;;;14.73;11.55;;;;;;;0.94;100.00;95430.84;5061128;28;20499;-72
2022/01/29 16:50:05;;;;;;;13.00;10.07;;;;;;;0.92;100.00;95428.41;5067423;28;20123;-71
2022/01/29 16:52:31;;;;;;;12.90;10.98;;;;;;;0.91;100.00;95426.75;5077505;28;20099;-72
2022/01/29 16:54:56;;;;;;;13.75;10.25;;;;;;;0.87;100.00;95427.03;5072193;28;20056;-72
2022/01/29 16:57:22;;;;;;;19.05;12.52;;;;;;;0.94;100.00;95438.47;5080494;28;20028;-71
2022/01/29 16:59:48;;;;;;;18.15;12.73;;;;;;;0.99;100.00;95433.91;5048204;28;20474;-71
2022/01/29 17:02:16;;;;;;;14.88;13.13;;;;;;;0.96;100.00;95440.00;5062365;28;20032;-72
2022/01/29 17:04:46;;;;;;;13.63;11.45;;;;;;;0.84;100.00;95434.91;5080842;28;20097;-72
2022/01/29 17:07:12;;;;;;;15.35;12.25;;;;;;;0.91;100.00;95444.59;5065543;28;20051;-72
2022/01/29 17:09:38;;;;;;;20.42;14.35;;;;;;;0.91;100.00;95441.22;5079863;28;20032;-72
2022/01/29 17:12:04;;;;;;;13.48;12.07;;;;;;;1.00;100.00;95430.44;5082967;28;20404;-72
2022/01/29 17:14:30;;;;;;;16.67;12.65;;;;;;;0.99;100.00;95437.28;5075143;28;20501;-72
2022/01/29 17:16:55;;;;;;;15.75;12.40;;;;;;;0.89;100.00;95432.88;5084065;28;20039;-72
2022/01/29 17:19:22;;;;;;;16.58;12.70;;;;;;;0.80;100.00;95430.94;5101776;28;20482;-71
2022/01/29 17:21:49;;;;;;;18.35;12.77;;;;;;;0.92;100.00;95430.13;5051127;28;20055;-71
2022/01/29 17:24:15;;;;;;;17.42;13.35;;;;;;;0.88;100.00;95419.31;5080904;28;20475;-71
2022/01/29 17:26:42;;;;;;;14.82;12.68;;;;;;;0.84;100.00;95425.53;5075329;28;20032;-71
2022/01/29 17:29:08;;;;;;;17.17;12.15;;;;;;;0.88;100.00;95421.03;5073949;28;20029;-71
2022/01/29 17:31:34;;;;;;;14.05;12.55;;;;;;;0.85;100.00;95419.50;5069825;28;20035;-71
2022/01/29 17:34:00;;;;;;;15.70;12.32;;;;;;;0.84;100.00;95411.97;5088119;28;20032;-71
2022/01/29 17:36:26;;;;;;;19.25;13.95;;;;;;;0.79;100.00;95429.28;5071926;28;20918;-71
2022/01/29 17:38:52;;;;;;;15.85;12.02;;;;;;;0.78;100.00;95427.66;5087259;27;20066;-71
2022/01/29 17:41:19;;;;;;;16.60;13.15;;;;;;;0.74;100.00;95429.59;5066594;28;20043;-71
2022/01/29 17:43:48;;;;;;;17.63;13.75;;;;;;;0.75;100.00;95432.94;5064487;28;20099;-71
2022/01/29 17:46:15;;;;;;;16.07;12.53;;;;;;;0.65;100.00;95442.94;5061460;28;20308;-71
2022/01/29 17:48:41;;;;;;;16.27;11.43;;;;;;;0.71;100.00;95441.69;5082550;28;20042;-71
2022/01/29 17:51:06;;;;;;;13.15;10.75;;;;;;;0.75;100.00;95440.59;5073122;28;20036;-71
2022/01/29 17:53:34;;;;;;;12.25;9.75;;;;;;;0.63;100.00;95439.66;5069534;28;20031;-71
2022/01/29 17:55:59;;;;;;;13.27;10.75;;;;;;;0.58;100.00;95434.03;5063363;28;20025;-71
2022/01/29 17:58:25;;;;;;;13.35;10.57;;;;;;;0.56;100.00;95435.06;5085674;28;20024;-71
2022/01/29 18:00:53;;;;;;;13.32;11.00;;;;;;;0.45;100.00;95441.66;5084287;28;20032;-71
2022/01/29 18:03:19;;;;;;;15.27;11.48;;;;;;;0.39;100.00;95436.94;5073609;28;20032;-71
2022/01/29 18:05:44;;;;;;;15.23;11.82;;;;;;;0.32;100.00;95434.91;5062690;28;20044;-71
2022/01/29 18:08:10;;;;;;;13.32;11.57;;;;;;;0.37;100.00;95438.78;5065390;28;20127;-71
2022/01/29 18:10:36;;;;;;;13.85;11.43;;;;;;;0.19;100.00;95428.94;5083018;27;20020;-71
2022/01/29 18:13:02;;;;;;;11.25;9.00;;;;;;;0.09;100.00;95426.16;5078411;28;20093;-71
2022/01/29 18:15:28;;;;;;;11.63;10.40;;;;;;;0.09;100.00;95425.34;5084817;28;20028;-71
2022/01/29 18:17:53;;;;;;;14.02;10.32;;;;;;;-0.19;100.00;95426.22;5083028;28;20504;-71
2022/01/29 18:20:19;;;;;;;13.57;10.55;;;;;;;-0.25;100.00;95429.97;5080264;28;20055;-71
2022/01/29 18:22:45;;;;;;;14.13;10.77;;;;;;;-0.40;100.00;95430.09;5075080;28;20044;-71
2022/01/29 18:25:10;;;;;;;15.27;11.15;;;;;;;-0.34;100.00;95430.53;5073432;28;20044;-71
2022/01/29 18:27:44;;;;;;;16.15;12.57;;;;;;;-0.45;100.00;95427.81;5071702;28;20043;-71
2022/01/29 18:30:10;;;;;;;17.08;12.43;;;;;;;-0.41;100.00;95431.81;5079536;28;20051;-71
2022/01/29 18:32:36;;;;;;;17.85;11.82;;;;;;;-0.48;100.00;95438.16;5058831;28;20191;-71
2022/01/29 18:35:01;;;;;;;16.55;10.40;;;;;;;-0.54;100.00;95439.38;5074120;28;20123;-71
2022/01/29 18:37:27;;;;;;;13.25;9.98;;;;;;;-0.51;100.00;95429.94;5080919;28;20032;-71
2022/01/29 18:40:07;;;;;;;14.77;11.77;;;;;;;-0.55;100.00;95437.72;5080160;28;20032;-71
2022/01/29 18:42:33;;;;;;;14.65;11.60;;;;;;;-0.59;100.00;95446.47;5082281;28;20034;-71
2022/01/29 18:44:59;;;;;;;14.27;11.30;;;;;;;-0.55;100.00;95447.88;5080030;28;20036;-71
2022/01/29 18:47:27;;;;;;;12.65;11.23;;;;;;;-0.56;100.00;95442.91;5081734;28;20053;-71
2022/01/29 18:49:53;;;;;;;13.82;11.10;;;;;;;-0.52;100.00;95441.84;5083302;28;20463;-71
2022/01/29 18:52:19;;;;;;;14.95;11.32;;;;;;;-0.55;100.00;95442.00;5076255;28;20024;-71
2022/01/29 18:54:45;;;;;;;19.10;13.32;;;;;;;-0.43;100.00;95440.44;5076398;28;20070;-71
2022/01/29 18:57:10;;;;;;;18.63;13.70;;;;;;;-0.41;100.00;95431.00;5074305;28;20074;-70
2022/01/29 18:59:36;;;;;;;21.40;14.02;;;;;;;-0.44;100.00;95442.16;5070024;28;20115;-71
2022/01/29 19:02:01;;;;;;;17.85;12.00;;;;;;;-0.55;100.00;95437.72;5076560;28;20496;-70
2022/01/29 19:04:26;;;;;;;15.90;11.18;;;;;;;-0.57;100.00;95426.84;5007197;28;20073;-71
2022/01/29 19:06:52;;;;;;;23.20;14.25;;;;;;;-0.58;100.00;95430.28;5021790;28;20092;-71
2022/01/29 19:09:18;;;;;;;14.77;12.88;;;;;;;-0.68;100.00;95431.75;5016152;28;20025;-71
2022/01/29 19:11:44;;;;;;;16.02;12.63;;;;;;;-0.67;100.00;95428.28;5023443;28;20487;-71
2022/01/29 19:14:10;;;;;;;12.43;9.90;;;;;;;-0.74;100.00;95429.56;5040169;28;20053;-71
2022/01/29 19:16:38;;;;;;;12.43;10.88;;;;;;;-0.72;100.00;95432.03;5019392;28;20043;-71
2022/01/29 19:19:04;;;;;;;12.05;10.05;;;;;;;-0.78;100.00;95427.31;5002857;28;20467;-71
2022/01/29 19:21:30;;;;;;;13.13;10.38;;;;;;;-0.74;100.00;95432.09;5017789;28;20493;-71
2022/01/29 19:23:55;;;;;;;14.25;11.23;;;;;;;-0.83;100.00;95440.28;5012639;28;20060;-71
2022/01/29 19:26:20;;;;;;;13.93;11.77;;;;;;;-0.88;100.00;95438.91;5028142;28;20171;-71
2022/01/29 19:28:46;;;;;;;15.55;10.70;;;;;;;-0.94;100.00;95429.94;5015222;28;20026;-72
2022/01/29 19:31:12;;;;;;;10.40;9.32;;;;;;;-0.99;100.00;95431.91;5019206;28;20479;-71
2022/01/29 19:33:37;;;;;;;12.30;10.48;;;;;;;-1.09;100.00;95423.19;5014477;28;20450;-71
2022/01/29 19:36:05;;;;;;;12.95;10.18;;;;;;;-0.72;100.00;95419.31;5000119;28;20033;-71
2022/01/29 19:38:31;;;;;;;11.32;10.13;;;;;;;-1.05;100.00;95424.66;5022430;28;20029;-71
2022/01/29 19:40:57;;;;;;;14.13;11.02;;;;;;;-1.05;100.00;95427.19;5018650;28;20029;-71
2022/01/29 19:43:22;;;;;;;12.88;9.48;;;;;;;-1.09;100.00;95429.09;5036898;28;20025;-71
2022/01/29 19:45:47;;;;;;;14.68;10.75;;;;;;;-1.04;100.00;95431.38;5021635;28;20038;-71
2022/01/29 19:48:13;;;;;;;12.93;10.55;;;;;;;-1.08;100.00;95429.91;5015391;28;20029;-71
2022/01/29 19:50:40;;;;;;;15.13;10.75;;;;;;;-1.17;100.00;95425.38;5020645;28;20516;-71
2022/01/29 19:53:07;;;;;;;13.82;10.85;;;;;;;-1.21;100.00;95424.72;5018953;28;20041;-71
2022/01/29 19:55:33;;;;;;;10.95;9.00;;;;;;;-1.10;100.00;95421.56;5002225;28;20056;-71
2022/01/29 19:57:59;;;;;;;12.13;9.73;;;;;;;-1.12;100.00;95421.66;5018190;28;20107;-71
2022/01/29 20:00:25;;;;;;;12.10;9.55;;;;;;;-1.11;100.00;95418.22;5019066;28;20049;-71
2022/01/29 20:02:50;;;;;;;12.02;9.98;;;;;;;-1.25;100.00;95420.72;5020512;28;20044;-71
2022/01/29 20:05:19;;;;;;;14.00;9.85;;;;;;;-1.47;100.00;95429.66;5019517;28;20127;-71
2022/01/29 20:07:46;;;;;;;13.48;9.80;;;;;;;-1.47;100.00;95424.56;5036155;28;20041;-71
2022/01/29 20:10:12;;;;;;;11.02;9.93;;;;;;;-1.41;100.00;95421.72;4996924;28;20060;-71
2022/01/29 20:12:38;;;;;;;17.48;10.93;;;;;;;-1.44;100.00;95420.13;5004496;28;20041;-71
2022/01/29 20:15:05;;;;;;;16.00;11.85;;;;;;;-1.52;100.00;95429.94;5002907;28;20501;-71
2022/01/29 20:17:31;;;;;;;13.80;11.23;;;;;;;-1.60;100.00;95430.34;5004984;28;20029;-71
2022/01/29 20:19:56;;;;;;;14.68;12.18;;;;;;;-1.51;100.00;95423.94;5002275;28;20045;-71
2022/01/29 20:22:22;;;;;;;17.95;12.48;;;;;;;-1.43;100.00;95420.97;5020317;28;20017;-72
2022/01/29 20:24:47;;;;;;;18.73;13.45;;;;;;;-1.46;100.00;95421.13;5022384;28;20041;-71
2022/01/29 20:27:13;;;;;;;16.92;12.30;;;;;;;-1.51;100.00;95420.59;5018513;28;20125;-71
2022/01/29 20:29:38;;;;;;;19.20;12.60;;;;;;;-1.52;100.00;95416.41;5021253;28;20033;-71
2022/01/29 20:32:04;;;;;;;21.65;14.40;;;;;;;-1.65;100.00;95414.56;5037346;28;20457;-72
2022/01/29 20:34:30;;;;;;;27.27;17.13;;;;;;;-1.75;100.00;95410.91;5019867;28;20022;-71
2022/01/29 20:36:56;;;;;;;20.55;14.65;;;;;;;-1.74;100.00;95407.47;5035979;28;20076;-71
2022/01/29 20:39:22;;;;;;;14.43;11.73;;;;;;;-1.78;100.00;95400.94;5022171;28;20614;-72
2022/01/29 20:41:47;;;;;;;20.42;15.75;;;;;;;-2.00;100.00;95402.19;5021086;28;20029;-72
2022/01/29 20:44:13;;;;;;;21.42;14.75;;;;;;;-2.04;100.00;95403.25;5020855;28;20067;-71
2022/01/29 20:46:41;;;;;;;16.88;13.15;;;;;;;-2.09;100.00;95398.47;5004183;28;20036;-72
2022/01/29 20:49:10;;;;;;;17.40;13.65;;;;;;;-2.12;100.00;95393.56;5024727;28;20053;-72
2022/01/29 20:51:36;;;;;;;16.67;11.73;;;;;;;-2.13;100.00;95394.44;5025038;28;20579;-71
2022/01/29 20:54:03;;;;;;;15.15;9.95;;;;;;;-2.12;100.00;95391.03;5024195;28;20053;-71
2022/01/29 20:56:29;;;;;;;18.17;11.18;;;;;;;-2.21;100.00;95391.50;5023829;28;20133;-71
2022/01/29 20:58:56;;;;;;;15.07;12.38;;;;;;;-2.33;100.00;95377.78;5024879;28;20695;-72
2022/01/29 21:01:22;;;;;;;15.02;11.50;;;;;;;-2.39;100.00;95387.44;5024788;28;20025;-72
2022/01/29 21:03:47;;;;;;;13.07;9.40;;;;;;;-2.40;100.00;95376.47;5026201;28;20114;-72
2022/01/29 21:06:13;;;;;;;11.07;8.57;;;;;;;-2.59;100.00;95375.00;5005025;28;20103;-72
2022/01/29 21:08:39;;;;;;;8.02;7.20;;;;;;;-2.77;100.00;95382.69;5026257;28;20040;-71
2022/01/29 21:11:04;;;;;;;11.20;8.57;;;;;;;-3.17;100.00;95382.25;5003459;28;20038;-71
2022/01/29 21:13:30;;;;;;;11.98;8.85;;;;;;;-3.34;100.00;95378.09;5042071;28;20071;-71
2022/01/29 21:15:57;;;;;;;12.52;9.27;;;;;;;-3.21;100.00;95374.81;5023076;28;20026;-71
2022/01/29 21:18:23;;;;;;;14.82;10.07;;;;;;;-3.16;100.00;95371.25;5024032;28;20030;-72
2022/01/29 21:20:50;;;;;;;13.18;9.63;;;;;;;-3.10;100.00;95374.28;5023481;28;20033;-72
2022/01/29 21:23:16;;;;;;;17.20;12.27;;;;;;;-3.38;100.00;95379.13;5006359;28;20017;-72
2022/01/29 21:25:45;;;;;;;20.48;14.32;;;;;;;-3.21;100.00;95376.53;5024900;28;20502;-72
2022/01/29 21:28:10;;;;;;;24.17;15.10;;;;;;;-3.20;100.00;95363.00;5020676;28;20043;-72
2022/01/29 21:30:36;;;;;;;20.10;13.52;;;;;;;-3.25;100.00;95357.34;5008097;28;20021;-72
2022/01/29 21:33:05;;;;;;;28.88;15.63;;;;;;;-3.43;100.00;95361.63;5039318;28;20033;-73
2022/01/29 21:35:32;;;;;;;30.08;18.77;;;;;;;-3.40;100.00;95353.88;5024256;28;20558;-72
2022/01/29 21:37:59;;;;;;;35.28;20.90;;;;;;;-3.43;100.00;95354.03;5025049;28;20057;-73
2022/01/29 21:40:25;;;;;;;48.95;26.70;;;;;;;-3.44;100.00;95361.72;5022527;28;20033;-72
2022/01/29 21:42:51;;;;;;;55.63;29.70;;;;;;;-3.53;100.00;95365.50;5043006;28;20049;-72
2022/01/29 21:45:16;;;;;;;50.78;27.83;;;;;;;-3.50;100.00;95356.97;5022326;28;20040;-73
2022/01/29 21:47:42;;;;;;;51.75;28.17;;;;;;;-3.63;100.00;95356.75;5006105;28;20482;-72
2022/01/29 21:50:07;;;;;;;49.05;26.70;;;;;;;-3.72;100.00;95355.47;5021512;28;20033;-73
2022/01/29 21:52:33;;;;;;;47.53;27.30;;;;;;;-3.93;100.00;95356.53;5032013;28;20745;-72
2022/01/29 21:54:58;;;;;;;53.35;28.73;;;;;;;-3.92;100.00;95357.38;5022178;28;20576;-73
2022/01/29 21:57:24;;;;;;;55.38;30.25;;;;;;;-3.90;100.00;95358.91;5007825;28;20136;-73
2022/01/29 21:59:50;;;;;;;48.15;27.25;;;;;;;-3.81;100.00;95355.13;5028094;28;20024;-73
2022/01/29 22:02:16;;;;;;;43.38;25.05;;;;;;;-3.92;100.00;95363.25;5022899;28;20076;-73
2022/01/29 22:04:41;;;;;;;49.25;26.05;;;;;;;-3.92;100.00;95358.19;5028141;28;20132;-73
2022/01/29 22:07:07;;;;;;;39.78;24.13;;;;;;;-3.95;100.00;95358.31;5023036;28;20025;-73
2022/01/29 22:09:33;;;;;;;32.05;19.55;;;;;;;-4.04;100.00;95348.63;5011733;28;20834;-72
2022/01/29 22:11:58;;;;;;;27.10;14.50;;;;;;;-4.22;100.00;95357.13;5024019;28;20056;-73
2022/01/29 22:14:24;;;;;;;26.95;16.25;;;;;;;-4.47;100.00;95351.56;5010639;28;20407;-73
2022/01/29 22:16:49;;;;;;;21.55;13.07;;;;;;;-4.39;100.00;95354.56;5010723;28;20406;-72
2022/01/29 22:19:15;;;;;;;17.48;12.27;;;;;;;-4.35;100.00;95353.53;5006943;28;20398;-73
2022/01/29 22:21:40;;;;;;;18.75;13.32;;;;;;;-4.31;100.00;95339.88;5011141;28;20083;-73
2022/01/29 22:24:06;;;;;;;27.98;15.32;;;;;;;-4.45;100.00;95337.97;5024409;28;20053;-73
2022/01/29 22:26:32;;;;;;;22.50;12.35;;;;;;;-4.45;100.00;95347.25;5023943;28;20026;-73
2022/01/29 22:28:57;;;;;;;20.80;12.20;;;;;;;-4.50;100.00;95339.91;5025195;28;20038;-72
2022/01/29 22:31:24;;;;;;;18.88;12.48;;;;;;;-4.55;100.00;95348.56;5027101;28;20036;-73
2022/01/29 22:33:50;;;;;;;21.77;11.85;;;;;;;-4.58;100.00;95336.09;5043122;28;20578;-72
2022/01/29 22:36:18;;;;;;;20.02;11.75;;;;;;;-4.83;100.00;95334.69;5027308;28;20124;-73
2022/01/29 22:38:44;;;;;;;18.95;11.18;;;;;;;-5.19;100.00;95325.41;5011180;28;20021;-73
2022/01/29 22:41:09;;;;;;;18.52;11.57;;;;;;;-5.27;100.00;95324.94;5005855;28;20022;-73
2022/01/29 22:43:35;;;;;;;19.77;12.25;;;;;;;-4.97;100.00;95326.91;5006492;28;20030;-73
2022/01/29 22:46:01;;;;;;;22.17;12.50;;;;;;;-5.03;100.00;95319.63;5025858;28;20037;-73
2022/01/29 22:48:26;;;;;;;15.57;10.88;;;;;;;-5.07;100.00;95319.84;5027348;28;20013;-72
2022/01/29 22:50:52;;;;;;;16.35;11.43;;;;;;;-5.07;100.00;95313.06;5025570;28;20029;-73
2022/01/29 22:53:17;;;;;;;19.55;11.15;;;;;;;-5.04;100.00;95312.94;5027372;28;20033;-73
2022/01/29 22:55:42;;;;;;;17.15;11.80;;;;;;;-4.96;100.00;95305.84;5028460;28;20026;-73
2022/01/29 22:58:08;;;;;;;17.40;10.82;;;;;;;-4.96;100.00;95295.75;5024658;28;20041;-74
